createdAt,value
2023-01-05T00:01:44.064Z,1.00
2023-01-05T00:04:12.315Z,0.93
2023-01-05T00:06:40.448Z,1.03
2023-01-05T00:09:13.296Z,1.40
2023-01-05T00:11:58.712Z,1.00
2023-01-05T00:14:47.025Z,0.73
2023-01-05T00:17:34.665Z,1.00
2023-01-05T00:20:21.423Z,0.77
2023-01-05T00:22:51.432Z,0.70
2023-01-05T00:25:22.888Z,0.60
2023-01-05T00:27:53.945Z,0.60
2023-01-05T00:30:23.744Z,0.90
2023-01-05T00:32:52.014Z,0.80
2023-01-05T00:35:20.385Z,0.90
2023-01-05T00:37:49.300Z,0.60
2023-01-05T00:40:19.115Z,0.80
2023-01-05T00:42:48.591Z,0.60
2023-01-05T00:45:17.864Z,0.67
2023-01-05T00:47:46.012Z,0.60
2023-01-05T00:50:15.832Z,0.60
2023-01-05T00:52:44.547Z,0.60
2023-01-05T00:55:12.925Z,0.50
2023-01-05T00:57:40.817Z,0.80
2023-01-05T01:00:15.873Z,0.63
2023-01-05T01:02:44.256Z,0.60
2023-01-05T01:05:12.211Z,0.60
2023-01-05T01:07:40.199Z,0.70
2023-01-05T01:10:09.383Z,0.50
2023-01-05T01:12:37.658Z,0.50
2023-01-05T01:15:06.640Z,0.50
2023-01-05T01:17:35.897Z,0.70
2023-01-05T01:20:03.864Z,0.67
2023-01-05T01:22:31.757Z,0.73
2023-01-05T01:25:01.105Z,0.50
2023-01-05T01:27:31.229Z,0.70
2023-01-05T01:29:59.110Z,0.70
2023-01-05T01:32:27.044Z,0.70
2023-01-05T01:34:56.239Z,0.50
2023-01-05T01:37:24.181Z,0.70
2023-01-05T01:39:54.674Z,0.90
2023-01-05T01:42:22.894Z,0.90
2023-01-05T01:44:56.956Z,0.60
2023-01-05T01:47:36.181Z,0.70
2023-01-05T01:50:11.052Z,0.60
2023-01-05T01:52:41.322Z,0.77
2023-01-05T01:55:11.361Z,0.70
2023-01-05T01:57:40.443Z,0.70
2023-01-05T02:00:14.588Z,0.60
2023-01-05T02:02:53.993Z,0.53
2023-01-05T02:05:30.420Z,0.50
2023-01-05T02:07:58.494Z,0.40
2023-01-05T02:10:42.373Z,0.70
2023-01-05T02:13:31.087Z,0.70
2023-01-05T02:16:08.192Z,0.53
2023-01-05T02:18:54.808Z,0.53
2023-01-05T02:21:31.053Z,0.47
2023-01-05T02:24:44.489Z,0.50
2023-01-05T02:27:38.705Z,0.80
2023-01-05T02:30:54.023Z,0.77
2023-01-05T02:33:29.532Z,0.60
2023-01-05T02:36:04.089Z,0.60
2023-01-05T02:38:38.256Z,0.53
2023-01-05T02:41:14.057Z,0.57
2023-01-05T02:43:45.029Z,0.50
2023-01-05T02:46:12.997Z,0.70
2023-01-05T02:48:44.027Z,0.60
2023-01-05T02:51:16.222Z,0.60
2023-01-05T02:53:48.837Z,0.70
2023-01-05T02:56:23.438Z,0.93
2023-01-05T02:58:55.293Z,0.60
2023-01-05T03:01:27.684Z,0.80
2023-01-05T03:03:59.651Z,0.60
2023-01-05T03:06:33.590Z,0.70
2023-01-05T03:09:05.894Z,0.60
2023-01-05T03:11:56.956Z,1.10
2023-01-05T03:14:30.068Z,0.70
2023-01-05T03:16:59.974Z,0.80
2023-01-05T03:19:39.362Z,0.80
2023-01-05T03:22:32.114Z,0.60
2023-01-05T03:25:18.384Z,0.80
2023-01-05T03:28:05.787Z,0.60
2023-01-05T03:31:01.942Z,0.80
2023-01-05T03:33:55.998Z,1.33
2023-01-05T03:36:29.951Z,1.03
2023-01-05T03:39:02.569Z,0.80
2023-01-05T03:41:34.352Z,0.73
2023-01-05T03:44:02.651Z,1.00
2023-01-05T03:46:34.517Z,0.90
2023-01-05T03:49:02.633Z,0.77
2023-01-05T03:51:35.050Z,0.80
2023-01-05T03:54:07.564Z,0.80
2023-01-05T03:56:37.262Z,1.00
2023-01-05T03:59:06.254Z,1.13
2023-01-05T04:01:34.660Z,0.90
2023-01-05T04:04:03.139Z,0.87
2023-01-05T04:06:32.672Z,1.27
2023-01-05T04:09:00.667Z,1.20
2023-01-05T04:11:28.692Z,1.30
2023-01-05T04:14:01.535Z,1.40
2023-01-05T04:16:30.053Z,0.97
2023-01-05T04:19:01.940Z,1.30
2023-01-05T04:21:30.159Z,1.67
2023-01-05T04:24:00.310Z,1.63
2023-01-05T04:26:29.526Z,1.30
2023-01-05T04:28:57.550Z,1.80
2023-01-05T04:31:26.807Z,2.00
2023-01-05T04:33:57.173Z,1.40
2023-01-05T04:36:26.328Z,1.77
2023-01-05T04:38:57.057Z,1.70
2023-01-05T04:41:26.766Z,2.17
2023-01-05T04:43:55.248Z,2.30
2023-01-05T04:46:24.810Z,1.83
2023-01-05T04:48:54.709Z,1.83
2023-01-05T04:51:23.213Z,2.37
2023-01-05T04:53:51.954Z,2.00
2023-01-05T04:56:23.014Z,1.70
2023-01-05T04:58:52.378Z,1.90
2023-01-05T05:01:20.670Z,2.00
2023-01-05T05:03:53.156Z,3.10
2023-01-05T05:06:23.330Z,1.50
2023-01-05T05:08:52.406Z,2.30
2023-01-05T05:11:21.984Z,2.30
2023-01-05T05:13:51.943Z,3.10
2023-01-05T05:16:20.151Z,2.03
2023-01-05T05:18:49.526Z,1.97
2023-01-05T05:21:22.667Z,1.50
2023-01-05T05:23:50.564Z,2.53
2023-01-05T05:26:19.011Z,2.33
2023-01-05T05:28:48.424Z,2.23
2023-01-05T05:31:17.664Z,2.73
2023-01-05T05:33:45.571Z,2.57
2023-01-05T05:36:13.466Z,2.27
2023-01-05T05:38:41.420Z,2.40
2023-01-05T05:41:09.288Z,2.70
2023-01-05T05:43:37.209Z,2.40
2023-01-05T05:46:05.411Z,3.30
2023-01-05T05:48:34.678Z,2.17
2023-01-05T05:51:02.584Z,2.50
2023-01-05T05:53:30.456Z,2.60
2023-01-05T05:55:58.292Z,2.10
2023-01-05T05:58:26.253Z,1.83
2023-01-05T06:00:58.605Z,1.80
2023-01-05T06:03:26.597Z,2.00
2023-01-05T06:05:56.064Z,2.13
2023-01-05T06:08:24.039Z,2.13
2023-01-05T06:10:52.239Z,1.70
2023-01-05T06:13:20.289Z,2.77
2023-01-05T06:15:48.194Z,1.70
2023-01-05T06:18:16.173Z,1.90
2023-01-05T06:20:44.423Z,2.73
2023-01-05T06:23:13.606Z,2.60
2023-01-05T06:25:42.173Z,2.83
2023-01-05T06:28:10.030Z,2.40
2023-01-05T06:30:37.847Z,2.80
2023-01-05T06:33:05.837Z,2.43
2023-01-05T06:35:33.704Z,2.50
2023-01-05T06:38:01.570Z,2.40
2023-01-05T06:40:30.802Z,2.87
2023-01-05T06:42:58.643Z,2.63
2023-01-05T06:45:26.605Z,2.60
2023-01-05T06:47:54.495Z,1.60
2023-01-05T06:50:22.349Z,2.40
2023-01-05T06:52:50.172Z,2.93
2023-01-05T06:55:18.079Z,2.00
2023-01-05T06:57:47.287Z,2.10
2023-01-05T07:00:16.673Z,2.53
2023-01-05T07:02:44.569Z,2.43
2023-01-05T07:05:12.438Z,2.30
2023-01-05T07:07:40.331Z,4.20
2023-01-05T07:10:09.097Z,1.90
2023-01-05T07:12:36.964Z,2.20
2023-01-05T07:15:07.276Z,2.60
2023-01-05T07:17:36.483Z,1.80
2023-01-05T07:20:04.957Z,2.63
2023-01-05T07:22:32.915Z,2.20
2023-01-05T07:25:01.108Z,2.93
2023-01-05T07:27:29.033Z,2.30
2023-01-05T07:29:57.060Z,2.23
2023-01-05T07:32:26.238Z,2.27
2023-01-05T07:34:55.778Z,2.30
2023-01-05T07:37:25.538Z,2.80
2023-01-05T07:39:53.514Z,3.00
2023-01-05T07:42:21.391Z,2.60
2023-01-05T07:44:50.685Z,2.63
2023-01-05T07:47:18.571Z,3.00
2023-01-05T07:49:47.796Z,1.73
2023-01-05T07:52:15.678Z,1.67
2023-01-05T07:54:43.551Z,1.93
2023-01-05T07:57:11.368Z,2.40
2023-01-05T07:59:39.248Z,2.30
2023-01-05T08:02:07.541Z,2.40
2023-01-05T08:04:35.672Z,2.30
2023-01-05T08:07:09.849Z,2.20
2023-01-05T08:09:55.226Z,2.07
2023-01-05T08:12:23.592Z,2.57
2023-01-05T08:14:51.473Z,1.90
2023-01-05T08:17:19.440Z,1.67
2023-01-05T08:19:47.303Z,1.97
2023-01-05T08:22:16.526Z,1.90
2023-01-05T08:24:44.386Z,3.53
2023-01-05T08:27:12.287Z,2.37
2023-01-05T08:29:40.162Z,1.97
2023-01-05T08:32:08.650Z,1.80
2023-01-05T08:34:36.901Z,1.63
2023-01-05T08:37:04.739Z,2.03
2023-01-05T08:39:35.869Z,2.07
2023-01-05T08:42:03.799Z,2.07
2023-01-05T08:44:31.635Z,1.70
2023-01-05T08:46:59.504Z,1.90
2023-01-05T08:49:27.325Z,2.40
2023-01-05T08:51:55.203Z,2.07
2023-01-05T08:54:23.047Z,1.80
2023-01-05T08:56:52.867Z,2.77
2023-01-05T08:59:20.776Z,1.57
2023-01-05T09:01:48.892Z,2.80
2023-01-05T09:04:16.937Z,2.07
2023-01-05T09:06:44.786Z,2.07
2023-01-05T09:09:12.699Z,1.87
2023-01-05T09:11:41.047Z,2.40
2023-01-05T09:14:14.343Z,2.27
2023-01-05T09:17:07.049Z,2.07
2023-01-05T09:19:30.127Z,2.03
2023-01-05T09:21:58.002Z,3.20
2023-01-05T09:24:26.146Z,1.60
2023-01-05T09:26:54.464Z,1.67
2023-01-05T09:29:23.873Z,1.63
2023-01-05T09:31:51.722Z,2.20
2023-01-05T09:34:19.661Z,2.53
2023-01-05T09:36:48.008Z,2.67
2023-01-05T09:39:15.903Z,2.63
2023-01-05T09:41:47.169Z,2.40
2023-01-05T09:44:27.094Z,3.13
2023-01-05T09:47:00.884Z,2.77
2023-01-05T09:49:30.844Z,2.80
2023-01-05T09:52:02.580Z,2.13
2023-01-05T09:54:34.703Z,2.63
2023-01-05T09:57:11.405Z,2.30
2023-01-05T09:59:41.843Z,3.23
2023-01-05T10:02:19.260Z,2.20
2023-01-05T10:04:48.443Z,2.37
2023-01-05T10:07:26.158Z,2.50
2023-01-05T10:09:55.828Z,2.70
2023-01-05T10:12:45.189Z,2.80
2023-01-05T10:15:17.186Z,3.10
2023-01-05T10:17:46.579Z,2.70
2023-01-05T10:20:21.005Z,2.43
2023-01-05T10:23:02.260Z,2.50
2023-01-05T10:25:39.136Z,2.70
2023-01-05T10:28:25.159Z,2.57
2023-01-05T10:30:58.898Z,2.67
2023-01-05T10:33:52.216Z,3.03
2023-01-05T10:39:36.250Z,1.90
2023-01-05T10:42:10.402Z,2.00
2023-01-05T10:44:56.293Z,2.07
2023-01-05T10:47:26.610Z,2.60
2023-01-05T10:49:55.868Z,2.87
2023-01-05T10:52:24.230Z,1.93
2023-01-05T10:54:56.445Z,2.23
2023-01-05T10:57:41.479Z,2.20
2023-01-05T11:00:13.351Z,2.63
2023-01-05T11:02:43.914Z,2.20
2023-01-05T11:05:28.744Z,2.23
2023-01-05T11:07:59.228Z,2.10
2023-01-05T11:10:31.659Z,2.27
2023-01-05T11:13:04.384Z,2.63
2023-01-05T11:15:34.507Z,2.40
2023-01-05T11:18:03.684Z,2.10
2023-01-05T11:20:33.053Z,2.80
2023-01-05T11:23:00.920Z,2.90
2023-01-05T11:25:30.632Z,2.60
2023-01-05T11:28:12.225Z,2.57
2023-01-05T11:30:48.118Z,2.50
2023-01-05T11:33:26.000Z,3.27
2023-01-05T11:35:56.369Z,4.17
2023-01-05T11:38:27.129Z,2.33
2023-01-05T11:40:56.760Z,2.70
2023-01-05T11:43:27.903Z,3.20
2023-01-05T11:45:59.674Z,3.03
2023-01-05T11:48:30.055Z,2.47
2023-01-05T11:50:59.740Z,2.70
2023-01-05T11:53:37.842Z,2.90
2023-01-05T11:56:18.708Z,2.30
2023-01-05T11:58:48.056Z,1.90
2023-01-05T12:01:59.425Z,2.20
2023-01-05T12:04:39.832Z,2.57
2023-01-05T12:07:25.660Z,2.73
2023-01-05T12:10:00.326Z,2.20
2023-01-05T12:12:41.934Z,3.47
2023-01-05T12:15:40.064Z,3.57
2023-01-05T12:18:21.561Z,2.67
2023-01-05T12:21:11.277Z,2.90
2023-01-05T12:23:53.467Z,2.43
2023-01-05T12:26:28.059Z,3.10
2023-01-05T12:35:37.734Z,2.73
2023-01-05T12:38:25.321Z,2.73
2023-01-05T12:41:12.565Z,3.37
2023-01-05T12:43:53.910Z,2.77
2023-01-05T12:46:33.065Z,3.53
2023-01-05T12:49:04.238Z,3.70
2023-01-05T12:51:37.079Z,2.80
2023-01-05T12:54:10.442Z,2.73
2023-01-05T12:56:45.091Z,4.33
2023-01-05T12:59:18.940Z,3.10
2023-01-05T13:01:54.457Z,2.97
2023-01-05T13:04:46.247Z,3.30
2023-01-05T13:07:21.249Z,3.17
2023-01-05T13:10:02.544Z,3.70
2023-01-05T13:12:32.748Z,2.90
2023-01-05T13:15:08.453Z,2.80
2023-01-05T13:17:42.357Z,3.07
2023-01-05T13:20:24.192Z,3.30
2023-01-05T13:22:56.736Z,2.67
2023-01-05T13:25:28.547Z,2.80
2023-01-05T13:27:57.871Z,3.50
2023-01-05T13:30:28.316Z,3.37
2023-01-05T13:33:18.542Z,3.23
2023-01-05T13:36:04.056Z,3.00
2023-01-05T13:39:04.689Z,3.00
2023-01-05T13:42:01.699Z,3.57
2023-01-05T13:44:56.421Z,3.20
2023-01-05T13:47:46.025Z,2.83
2023-01-05T13:50:43.371Z,3.27
2023-01-05T13:53:15.755Z,2.60
2023-01-05T13:55:50.135Z,4.70
2023-01-05T13:58:44.270Z,3.70
2023-01-05T14:01:16.536Z,3.70
2023-01-05T14:03:51.408Z,2.73
2023-01-05T14:06:23.765Z,2.43
2023-01-05T14:08:57.040Z,2.97
2023-01-05T14:11:26.603Z,2.13
2023-01-05T14:13:58.371Z,4.10
2023-01-05T14:17:00.687Z,2.77
2023-01-05T14:19:50.930Z,2.83
2023-01-05T14:22:36.080Z,2.47
2023-01-05T14:25:41.208Z,3.10
2023-01-05T14:28:40.788Z,2.67
2023-01-05T14:31:45.516Z,2.83
2023-01-05T14:34:17.658Z,2.33
2023-01-05T14:36:51.705Z,3.07
2023-01-05T14:39:27.369Z,2.47
2023-01-05T14:42:04.850Z,3.67
2023-01-05T14:44:36.976Z,2.80
2023-01-05T14:47:06.042Z,2.40
2023-01-05T14:49:38.748Z,3.40
2023-01-05T14:52:16.247Z,2.50
2023-01-05T14:55:21.778Z,3.20
2023-01-05T14:57:59.505Z,4.27
2023-01-05T15:00:38.590Z,3.37
2023-01-05T15:03:27.487Z,3.17
2023-01-05T15:06:01.410Z,3.00
2023-01-05T15:08:48.077Z,3.07
2023-01-05T15:11:28.968Z,3.80
2023-01-05T15:14:34.606Z,3.43
2023-01-05T15:17:45.342Z,3.67
2023-01-05T15:20:29.540Z,3.00
2023-01-05T15:23:15.962Z,3.43
2023-01-05T15:26:08.498Z,3.10
2023-01-05T15:29:27.736Z,2.90
2023-01-05T15:31:59.069Z,3.03
2023-01-05T15:34:34.972Z,3.10
2023-01-05T15:37:12.543Z,2.33
2023-01-05T15:39:49.516Z,2.97
2023-01-05T15:42:22.176Z,3.53
2023-01-05T15:44:52.810Z,3.10
2023-01-05T15:47:23.782Z,2.63
2023-01-05T15:49:56.184Z,2.57
2023-01-05T15:52:35.174Z,3.10
2023-01-05T15:55:12.926Z,2.70
2023-01-05T15:57:41.186Z,2.60
2023-01-05T16:00:18.086Z,3.47
2023-01-05T16:02:46.031Z,3.30
2023-01-05T16:05:16.670Z,3.43
2023-01-05T16:07:52.490Z,2.20
2023-01-05T16:10:24.964Z,2.50
2023-01-05T16:13:06.834Z,2.93
2023-01-05T16:15:36.699Z,3.67
2023-01-05T16:18:07.591Z,3.10
2023-01-05T16:20:38.131Z,2.60
2023-01-05T16:23:11.383Z,3.40
2023-01-05T16:25:43.400Z,3.60
2023-01-05T16:28:17.319Z,3.50
2023-01-05T16:30:47.487Z,3.43
2023-01-05T16:33:28.308Z,3.13
2023-01-05T16:36:13.722Z,2.80
2023-01-05T16:38:41.838Z,3.73
2023-01-05T16:41:17.024Z,3.13
2023-01-05T16:43:56.258Z,3.47
2023-01-05T16:46:36.272Z,2.80
2023-01-05T16:49:37.329Z,2.83
2023-01-05T16:52:09.584Z,2.93
2023-01-05T16:54:39.486Z,2.83
2023-01-05T16:57:33.670Z,3.47
2023-01-05T17:00:01.653Z,3.43
2023-01-05T17:02:47.734Z,3.63
2023-01-05T17:05:18.276Z,3.50
2023-01-05T17:07:48.795Z,2.80
2023-01-05T17:10:27.412Z,3.00
2023-01-05T17:13:01.645Z,3.37
2023-01-05T17:15:33.062Z,3.27
2023-01-05T17:18:01.417Z,3.90
2023-01-05T17:20:32.802Z,3.80
2023-01-05T17:23:00.828Z,3.23
2023-01-05T17:25:33.593Z,3.50
2023-01-05T17:28:02.918Z,2.80
2023-01-05T17:30:30.946Z,2.80
2023-01-05T17:32:58.884Z,3.67
2023-01-05T17:35:26.791Z,4.60
2023-01-05T17:37:54.680Z,3.97
2023-01-05T17:40:23.291Z,2.73
2023-01-05T17:42:52.039Z,3.17
2023-01-05T17:45:23.658Z,3.50
2023-01-05T17:47:52.219Z,3.10
2023-01-05T17:50:22.081Z,3.33
2023-01-05T17:52:50.190Z,3.50
2023-01-05T17:55:18.197Z,2.97
2023-01-05T17:57:46.115Z,3.00
2023-01-05T18:00:18.273Z,4.70
2023-01-05T18:02:50.642Z,3.47
2023-01-05T18:05:19.367Z,3.40
2023-01-05T18:07:47.461Z,3.57
2023-01-05T18:10:18.538Z,3.20
2023-01-05T18:12:46.551Z,3.53
2023-01-05T18:15:15.340Z,3.57
2023-01-05T18:17:43.309Z,3.33
2023-01-05T18:20:16.864Z,3.50
2023-01-05T18:22:46.771Z,3.40
2023-01-05T18:25:14.733Z,4.27
2023-01-05T18:27:42.616Z,3.23
2023-01-05T18:30:11.914Z,3.60
2023-01-05T18:32:40.503Z,3.47
2023-01-05T18:35:10.319Z,3.53
2023-01-05T18:37:41.272Z,3.37
2023-01-05T18:40:10.786Z,3.00
2023-01-05T18:42:39.471Z,3.40
2023-01-05T18:45:19.873Z,3.10
2023-01-05T18:47:57.551Z,3.20
2023-01-05T18:50:25.676Z,4.10
2023-01-05T18:52:55.006Z,3.80
2023-01-05T18:55:22.969Z,3.67
2023-01-05T18:57:50.998Z,4.27
2023-01-05T19:00:19.514Z,4.53
2023-01-05T19:02:47.523Z,3.93
2023-01-05T19:05:15.636Z,3.20
2023-01-05T19:07:43.650Z,4.17
2023-01-05T19:10:13.493Z,4.07
2023-01-05T19:12:41.361Z,3.80
2023-01-05T19:15:10.454Z,3.50
2023-01-05T19:17:38.384Z,4.73
2023-01-05T19:20:07.417Z,3.93
2023-01-05T19:22:35.481Z,4.50
2023-01-05T19:25:05.470Z,4.23
2023-01-05T19:27:34.880Z,3.90
2023-01-05T19:30:02.836Z,4.60
2023-01-05T19:32:32.761Z,4.00
2023-01-05T19:35:00.624Z,4.40
2023-01-05T19:37:28.461Z,3.87
2023-01-05T19:39:56.402Z,3.80
2023-01-05T19:42:24.275Z,4.10
2023-01-05T19:44:53.587Z,5.17
2023-01-05T19:47:21.574Z,4.57
2023-01-05T19:49:49.454Z,4.87
2023-01-05T19:52:17.317Z,3.70
2023-01-05T19:54:45.777Z,3.90
2023-01-05T19:57:13.616Z,4.40
2023-01-05T19:59:41.478Z,3.87
2023-01-05T20:02:11.457Z,4.67
2023-01-05T20:04:39.428Z,4.40
2023-01-05T20:07:10.140Z,3.97
2023-01-05T20:09:38.111Z,4.10
2023-01-05T20:12:14.378Z,4.70
2023-01-05T20:14:42.512Z,3.70
2023-01-05T20:17:12.761Z,3.57
2023-01-05T20:19:40.791Z,4.30
2023-01-05T20:22:13.553Z,3.40
2023-01-05T20:24:41.966Z,3.07
2023-01-05T20:27:11.547Z,4.10
2023-01-05T20:29:40.390Z,3.60
2023-01-05T20:32:13.493Z,8.73
2023-01-05T20:34:42.578Z,5.13
2023-01-05T20:37:11.726Z,5.80
2023-01-05T20:39:41.596Z,5.23
2023-01-05T20:42:10.990Z,4.70
2023-01-05T20:44:43.068Z,4.50
2023-01-05T20:47:13.515Z,3.70
2023-01-05T20:49:42.562Z,4.83
2023-01-05T20:52:11.963Z,3.47
2023-01-05T20:54:40.389Z,3.93
2023-01-05T20:57:09.044Z,4.03
2023-01-05T20:59:40.589Z,4.03
2023-01-05T21:02:22.318Z,3.90
2023-01-05T21:04:53.830Z,3.43
2023-01-05T21:07:22.425Z,4.03
2023-01-05T21:09:51.153Z,3.17
2023-01-05T21:12:19.084Z,4.20
2023-01-05T21:14:46.974Z,3.27
2023-01-05T21:17:14.881Z,3.27
2023-01-05T21:19:42.822Z,3.43
2023-01-05T21:22:12.048Z,3.53
2023-01-05T21:24:40.929Z,3.63
2023-01-05T21:27:08.979Z,3.33
2023-01-05T21:29:37.073Z,3.87
2023-01-05T21:32:05.105Z,4.57
2023-01-05T21:34:32.989Z,4.13
2023-01-05T21:37:01.171Z,4.70
2023-01-05T21:39:30.373Z,4.87
2023-01-05T21:42:15.710Z,4.90
2023-01-05T21:44:43.597Z,3.23
2023-01-05T21:47:12.757Z,4.00
2023-01-05T21:49:40.633Z,3.77
2023-01-05T21:52:26.105Z,3.20
2023-01-05T21:55:13.181Z,3.30
2023-01-05T21:57:41.087Z,3.03
2023-01-05T22:00:10.056Z,3.30
2023-01-05T22:02:37.903Z,2.60
2023-01-05T22:05:06.921Z,2.67
2023-01-05T22:07:34.797Z,3.30
2023-01-05T22:10:04.614Z,2.90
2023-01-05T22:12:32.597Z,2.70
2023-01-05T22:15:00.513Z,3.27
2023-01-05T22:17:28.468Z,2.10
2023-01-05T22:19:56.350Z,2.87
2023-01-05T22:22:24.176Z,3.43
2023-01-05T22:24:52.072Z,2.77
2023-01-05T22:27:21.265Z,2.60
2023-01-05T22:29:49.235Z,2.50
2023-01-05T22:32:17.081Z,2.20
2023-01-05T22:34:46.365Z,1.90
2023-01-05T22:37:16.005Z,2.07
2023-01-05T22:39:43.855Z,2.97
2023-01-05T22:42:11.745Z,2.63
2023-01-05T22:44:41.029Z,2.63
2023-01-05T22:47:08.895Z,1.80
2023-01-05T22:49:36.769Z,2.30
2023-01-05T22:52:05.067Z,2.00
2023-01-05T22:54:33.701Z,2.27
2023-01-05T22:57:01.628Z,2.53
2023-01-05T22:59:29.472Z,2.00
2023-01-05T23:01:58.819Z,2.77
2023-01-05T23:04:26.875Z,2.13
2023-01-05T23:06:54.763Z,2.77
2023-01-05T23:09:22.746Z,2.13
2023-01-05T23:11:50.683Z,2.10
2023-01-05T23:14:19.105Z,1.93
2023-01-05T23:16:47.724Z,2.37
2023-01-05T23:19:17.617Z,2.50
2023-01-05T23:21:45.553Z,2.10
2023-01-05T23:24:13.450Z,2.23
2023-01-05T23:26:41.326Z,2.27
2023-01-05T23:29:09.296Z,1.97
2023-01-05T23:31:37.417Z,2.60
2023-01-05T23:34:05.277Z,2.00
2023-01-05T23:36:34.556Z,2.30
2023-01-05T23:39:02.459Z,3.30
2023-01-05T23:41:30.382Z,2.40
2023-01-05T23:43:58.363Z,2.30
2023-01-05T23:46:26.420Z,2.50
2023-01-05T23:48:54.400Z,2.27
2023-01-05T23:51:22.308Z,2.70
2023-01-05T23:53:53.095Z,2.20
2023-01-05T23:56:23.213Z,3.07
2023-01-05T23:58:55.963Z,2.30
